Time;durP1;ratioP1;P1;durP2;ratioP2;P2;SDS_P1;SDS_P2;PMS_P1;PMS_P2;Temp;Humidity;BMP_temperature;BMP_pressure;BME280_temperature;BME280_humidity;BME280_pressure;Samples;Min_cycle;Max_cycle;Signal;HPM_P1;HPM_P2
2023/08/23 00:00:28;;;;;;;4.03;2.12;;;;;;;26.57;55.08;99618.88;4487918;32;34835;-82
2023/08/23 00:02:57;;;;;;;2.83;1.65;;;;;;;26.52;55.61;99621.88;4487389;32;33936;-83
2023/08/23 00:05:26;;;;;;;3.25;1.55;;;;;;;26.44;56.17;99618.16;4493239;32;32628;-83
2023/08/23 00:07:57;;;;;;;4.68;2.22;;;;;;;26.50;55.76;99612.34;4487532;31;33867;-83
2023/08/23 00:10:26;;;;;;;3.92;1.92;;;;;;;26.34;56.07;99608.25;4478896;32;34667;-82
2023/08/23 00:12:56;;;;;;;6.55;2.10;;;;;;;26.37;55.90;99610.66;4485323;31;33327;-80
2023/08/23 00:15:26;;;;;;;3.00;1.65;;;;;;;26.28;56.10;99602.59;4491059;31;33902;-79
2023/08/23 00:17:55;;;;;;;4.03;1.92;;;;;;;26.30;55.77;99596.16;4475966;32;34108;-81
2023/08/23 00:20:24;;;;;;;4.53;2.20;;;;;;;26.43;55.45;99600.50;4487591;32;33999;-80
2023/08/23 00:22:53;;;;;;;4.57;2.25;;;;;;;26.36;55.61;99600.13;4486877;31;34899;-80
2023/08/23 00:25:22;;;;;;;4.62;2.12;;;;;;;26.43;55.53;99598.69;4487423;32;33308;-79
2023/08/23 00:27:50;;;;;;;4.15;2.10;;;;;;;26.39;55.13;99594.59;4489939;31;34206;-81
2023/08/23 00:30:36;;;;;;;3.85;1.90;;;;;;;26.31;55.49;99592.56;4487531;31;34794;-80
2023/08/23 00:33:05;;;;;;;3.70;2.08;;;;;;;26.16;55.93;99591.94;4480478;32;34124;-80
2023/08/23 00:35:35;;;;;;;4.75;2.25;;;;;;;26.36;55.26;99589.50;4486031;31;32954;-80
2023/08/23 00:38:04;;;;;;;3.78;1.58;;;;;;;26.28;55.44;99590.13;4493344;32;33549;-80
2023/08/23 00:40:33;;;;;;;2.62;1.55;;;;;;;26.29;55.22;99585.66;4484759;31;34834;-80
2023/08/23 00:43:06;;;;;;;3.25;1.52;;;;;;;26.17;55.54;99584.84;4471848;32;33683;-80
2023/08/23 00:45:38;;;;;;;3.75;2.25;;;;;;;26.19;55.77;99585.53;4487692;32;33893;-80
2023/08/23 00:48:07;;;;;;;3.83;1.98;;;;;;;26.17;55.89;99580.38;4488520;31;34300;-80
2023/08/23 00:50:36;;;;;;;5.62;1.92;;;;;;;26.14;56.17;99582.41;4485029;31;34536;-81
2023/08/23 00:53:06;;;;;;;4.47;2.20;;;;;;;26.18;56.05;99584.69;4467096;32;33682;-80
2023/08/23 00:55:36;;;;;;;3.53;1.95;;;;;;;26.23;55.68;99589.66;4461761;32;33118;-80
2023/08/23 00:58:05;;;;;;;3.55;2.05;;;;;;;26.15;55.93;99581.44;4462638;32;33921;-79
2023/08/23 01:00:34;;;;;;;3.67;2.17;;;;;;;26.22;55.79;99577.34;4466824;32;34299;-80
2023/08/23 01:03:04;;;;;;;3.67;1.55;;;;;;;26.05;56.16;99575.19;4464727;32;35278;-81
2023/08/23 01:05:40;;;;;;;4.22;1.90;;;;;;;26.22;55.46;99582.66;4461126;32;33354;-80
2023/08/23 01:08:14;;;;;;;4.10;2.33;;;;;;;26.16;55.46;99573.34;4461766;32;34207;-80
2023/08/23 01:10:48;;;;;;;3.15;1.92;;;;;;;26.05;56.00;99580.50;4465623;32;34105;-80
2023/08/23 01:13:23;;;;;;;3.95;1.87;;;;;;;26.13;55.61;99570.94;4473480;32;33833;-80
2023/08/23 01:15:53;;;;;;;4.20;1.98;;;;;;;26.18;55.62;99571.41;4465962;32;33838;-81
2023/08/23 01:18:25;;;;;;;4.80;1.95;;;;;;;26.10;55.37;99576.50;4470401;32;34482;-81
2023/08/23 01:20:54;;;;;;;4.50;2.05;;;;;;;26.08;55.66;99562.47;4462564;32;34384;-80
2023/08/23 01:23:25;;;;;;;4.68;2.12;;;;;;;26.15;55.80;99582.28;4463052;32;34066;-80
2023/08/23 01:25:54;;;;;;;;;;;;;;;26.14;55.90;99577.09;4468493;32;33240;-80
2023/08/23 01:28:24;;;;;;;4.37;1.87;;;;;;;26.14;56.17;99580.63;4466224;32;34757;-80
2023/08/23 01:30:52;;;;;;;2.87;1.17;;;;;;;25.98;56.60;99579.28;4459746;32;33538;-80
2023/08/23 01:33:29;;;;;;;4.87;2.05;;;;;;;26.02;56.42;99586.88;4460223;32;33721;-80
2023/08/23 01:36:02;;;;;;;4.50;1.92;;;;;;;25.93;56.57;99579.66;4467328;32;34105;-80
2023/08/23 01:38:33;;;;;;;3.58;1.85;;;;;;;25.98;56.62;99573.97;4475828;32;33331;-80
2023/08/23 01:41:02;;;;;;;3.12;1.73;;;;;;;25.92;56.71;99578.78;4471274;32;33708;-79
2023/08/23 01:43:31;;;;;;;4.32;1.90;;;;;;;25.74;57.23;99567.78;4464828;31;33132;-80
2023/08/23 01:46:00;;;;;;;3.10;1.80;;;;;;;25.78;57.36;99573.69;4467220;32;33035;-81
2023/08/23 01:48:29;;;;;;;3.72;1.80;;;;;;;25.79;57.29;99574.53;4477173;32;33505;-80
2023/08/23 01:50:58;;;;;;;3.35;2.12;;;;;;;25.70;57.68;99576.94;4476095;32;33633;-81
2023/08/23 01:53:27;;;;;;;4.55;1.90;;;;;;;25.77;57.02;99582.63;4461192;32;33404;-80
2023/08/23 01:56:00;;;;;;;4.12;1.98;;;;;;;25.75;57.11;99568.59;4463826;32;34299;-80
2023/08/23 01:58:29;;;;;;;4.22;2.33;;;;;;;25.63;57.78;99575.72;4466638;32;34419;-80
2023/08/23 02:00:59;;;;;;;3.08;1.60;;;;;;;25.65;57.88;99564.97;4471859;32;34627;-80
2023/08/23 02:03:28;;;;;;;3.25;1.77;;;;;;;25.68;57.95;99567.41;4461071;32;33489;-80
2023/08/23 02:05:57;;;;;;;2.85;1.52;;;;;;;25.71;57.54;99562.69;4466861;32;33177;-80
2023/08/23 02:08:26;;;;;;;3.08;1.58;;;;;;;25.67;57.87;99563.06;4462007;32;33485;-80
2023/08/23 02:10:55;;;;;;;3.90;1.90;;;;;;;25.76;57.76;99560.53;4476134;32;34463;-79
2023/08/23 02:13:25;;;;;;;3.55;2.05;;;;;;;25.74;57.76;99556.31;4476560;32;33378;-80
2023/08/23 02:15:53;;;;;;;3.33;1.70;;;;;;;25.63;58.10;99562.44;4475826;32;32924;-80
2023/08/23 02:18:22;;;;;;;3.72;1.92;;;;;;;25.45;58.51;99550.59;4476434;32;34644;-80
2023/08/23 02:20:56;;;;;;;4.15;2.15;;;;;;;25.51;58.46;99544.81;4482009;32;33612;-80
2023/08/23 02:23:25;;;;;;;3.42;2.00;;;;;;;25.38;59.07;99541.41;4467103;32;33393;-81
2023/08/23 02:25:55;;;;;;;3.17;1.77;;;;;;;25.42;58.74;99543.72;4463737;32;33428;-80
2023/08/23 02:28:25;;;;;;;3.80;2.17;;;;;;;25.38;59.00;99530.78;4476405;32;34197;-80
2023/08/23 02:30:54;;;;;;;3.55;2.00;;;;;;;25.43;58.76;99531.28;4475675;32;34152;-80
2023/08/23 02:33:22;;;;;;;4.47;2.33;;;;;;;25.43;58.76;99541.91;4466150;32;33724;-80
2023/08/23 02:35:51;;;;;;;4.35;2.15;;;;;;;25.41;59.06;99534.03;4461095;32;33757;-80
2023/08/23 02:38:20;;;;;;;4.12;1.80;;;;;;;25.45;58.98;99538.16;4460696;32;34195;-80
2023/08/23 02:40:49;;;;;;;4.37;2.15;;;;;;;25.40;59.14;99537.69;4467497;32;34055;-79
2023/08/23 02:43:18;;;;;;;3.30;1.90;;;;;;;25.31;59.43;99538.38;4471712;32;33794;-80
2023/08/23 02:45:48;;;;;;;3.75;2.17;;;;;;;25.40;59.31;99537.69;4459754;32;33111;-80
2023/08/23 02:48:17;;;;;;;3.58;2.05;;;;;;;25.48;59.05;99545.03;4470520;32;33962;-79
2023/08/23 02:50:46;;;;;;;3.05;1.87;;;;;;;25.40;59.08;99543.00;4470581;32;34133;-80
2023/08/23 02:53:15;;;;;;;4.10;2.03;;;;;;;25.34;59.28;99536.31;4460290;32;34560;-80
2023/08/23 02:55:44;;;;;;;3.53;1.90;;;;;;;25.22;59.58;99536.41;4464913;32;33287;-80
2023/08/23 02:58:13;;;;;;;3.45;1.73;;;;;;;25.29;59.28;99538.50;4468498;32;34254;-80
2023/08/23 03:00:42;;;;;;;3.58;1.58;;;;;;;25.24;59.49;99545.97;4463264;32;34565;-81
2023/08/23 03:03:13;;;;;;;4.72;2.50;;;;;;;25.20;59.71;99543.66;4461156;32;33444;-81
2023/08/23 03:05:42;;;;;;;3.95;1.80;;;;;;;25.21;59.72;99540.06;4470538;32;33350;-80
2023/08/23 03:08:11;;;;;;;4.55;2.17;;;;;;;25.11;60.17;99538.06;4465711;32;34593;-80
2023/08/23 03:10:39;;;;;;;4.10;1.90;;;;;;;25.15;60.22;99537.81;4468224;32;33752;-81
2023/08/23 03:13:09;;;;;;;3.72;2.37;;;;;;;25.05;60.45;99537.69;4471658;32;32890;-80
2023/08/23 03:15:37;;;;;;;3.33;1.92;;;;;;;25.07;60.38;99533.94;4469023;32;33038;-80
2023/08/23 03:18:06;;;;;;;4.60;2.47;;;;;;;25.13;60.30;99538.78;4471269;32;34021;-80
2023/08/23 03:20:37;;;;;;;3.78;1.95;;;;;;;25.20;59.85;99539.22;4459705;32;34353;-80
2023/08/23 03:23:05;;;;;;;3.25;1.95;;;;;;;25.12;60.21;99544.22;4463367;32;32956;-80
2023/08/23 03:25:36;;;;;;;4.50;2.25;;;;;;;25.09;60.53;99542.63;4468416;32;33300;-81
2023/08/23 03:28:07;;;;;;;4.68;2.28;;;;;;;25.03;60.71;99545.78;4473263;32;33767;-80
2023/08/23 03:30:35;;;;;;;4.20;2.20;;;;;;;24.99;60.70;99536.34;4462340;32;33588;-80
2023/08/23 03:33:05;;;;;;;5.05;2.00;;;;;;;25.02;60.55;99540.56;4460253;32;33657;-81
2023/08/23 03:35:35;;;;;;;4.20;2.47;;;;;;;25.03;60.57;99542.25;4459772;32;33813;-80
2023/08/23 03:38:05;;;;;;;4.30;1.98;;;;;;;24.97;60.77;99527.66;4472126;32;34572;-81
2023/08/23 03:40:35;;;;;;;4.85;2.45;;;;;;;24.97;60.92;99532.12;4469416;32;34006;-80
2023/08/23 03:43:04;;;;;;;3.65;2.05;;;;;;;24.96;61.04;99536.59;4462630;32;33285;-80
2023/08/23 03:45:34;;;;;;;5.72;2.50;;;;;;;24.89;61.17;99525.56;4457982;32;33244;-80
2023/08/23 03:48:05;;;;;;;4.28;2.22;;;;;;;25.01;60.66;99531.78;4459368;32;33816;-80
2023/08/23 03:50:35;;;;;;;3.80;1.98;;;;;;;24.98;60.96;99531.97;4480670;32;33966;-80
2023/08/23 03:53:05;;;;;;;4.23;2.30;;;;;;;25.13;60.67;99530.00;4459188;32;34455;-81
2023/08/23 03:55:36;;;;;;;4.85;2.22;;;;;;;25.05;60.63;99540.31;4467359;32;32458;-80
2023/08/23 03:58:05;;;;;;;5.10;2.70;;;;;;;24.90;61.27;99539.69;4460391;32;33392;-80
2023/08/23 04:00:36;;;;;;;5.03;2.08;;;;;;;24.96;61.13;99530.41;4471213;32;33842;-80
2023/08/23 04:03:05;;;;;;;;;;;;;;;25.09;60.74;99542.63;4466176;32;33371;-80
2023/08/23 04:05:40;;;;;;;3.80;2.15;;;;;;;24.92;61.20;99535.13;4467160;32;32390;-80
2023/08/23 04:08:10;;;;;;;3.72;1.80;;;;;;;24.99;61.16;99541.66;4466249;32;33980;-80
2023/08/23 04:10:39;;;;;;;4.30;2.15;;;;;;;25.05;60.63;99543.81;4477183;32;33240;-80
2023/08/23 04:13:08;;;;;;;4.05;2.28;;;;;;;24.92;61.40;99537.75;4478827;32;35051;-80
2023/08/23 04:15:41;;;;;;;3.33;1.67;;;;;;;25.00;61.17;99529.22;4474915;32;33782;-80
2023/08/23 04:18:10;;;;;;;4.12;2.25;;;;;;;24.99;60.80;99538.16;4470664;32;34461;-81
2023/08/23 04:20:39;;;;;;;5.20;3.30;;;;;;;24.92;61.39;99527.16;4466723;32;34585;-81
2023/08/23 04:23:10;;;;;;;4.85;2.17;;;;;;;25.03;61.04;99527.19;4480701;32;33578;-80
2023/08/23 04:25:39;;;;;;;3.22;2.08;;;;;;;24.79;61.96;99516.62;4466100;32;33295;-80
2023/08/23 04:28:08;;;;;;;3.80;1.80;;;;;;;25.03;61.32;99513.06;4459866;32;33500;-80
2023/08/23 04:30:38;;;;;;;5.28;2.00;;;;;;;24.93;61.83;99512.91;4466311;32;33519;-80
2023/08/23 04:33:07;;;;;;;4.18;2.25;;;;;;;25.05;61.63;99511.97;4477015;32;33839;-81
2023/08/23 04:35:35;;;;;;;3.85;2.15;;;;;;;25.05;61.84;99513.78;4469247;32;33412;-81
2023/08/23 04:38:09;;;;;;;5.15;2.12;;;;;;;25.04;62.39;99514.75;4461688;32;33731;-80
2023/08/23 04:40:40;;;;;;;3.58;1.98;;;;;;;25.19;62.00;99510.97;4471232;32;33680;-82
2023/08/23 04:43:10;;;;;;;3.92;2.45;;;;;;;25.27;62.07;99521.84;4462944;32;33402;-82
2023/08/23 04:45:39;;;;;;;4.57;2.37;;;;;;;25.23;62.44;99522.19;4474032;32;33957;-82
2023/08/23 04:48:08;;;;;;;4.30;2.05;;;;;;;25.36;61.98;99522.09;4472974;32;33434;-82
2023/08/23 04:50:37;;;;;;;4.37;2.30;;;;;;;25.33;62.30;99523.19;4465362;32;33611;-82
2023/08/23 04:53:06;;;;;;;4.37;2.22;;;;;;;25.49;61.81;99526.34;4475035;32;33760;-81
2023/08/23 04:55:35;;;;;;;3.30;1.90;;;;;;;25.69;61.04;99526.59;4460237;32;32902;-79
2023/08/23 04:58:05;;;;;;;5.62;2.53;;;;;;;25.62;61.52;99522.72;4468881;32;33970;-80
2023/08/23 05:00:34;;;;;;;5.15;2.72;;;;;;;25.85;60.18;99531.53;4463095;32;33921;-80
2023/08/23 05:03:04;;;;;;;6.70;2.67;;;;;;;25.94;59.08;99531.66;4461259;32;33384;-81
2023/08/23 05:05:37;;;;;;;4.35;2.22;;;;;;;25.95;58.44;99533.38;4464031;32;33061;-80
2023/08/23 05:08:06;;;;;;;4.43;2.45;;;;;;;25.80;58.98;99526.56;4473793;32;34669;-80
2023/08/23 05:10:35;;;;;;;3.50;1.85;;;;;;;25.91;58.93;99526.59;4466182;32;34395;-81
2023/08/23 05:13:05;;;;;;;4.22;2.22;;;;;;;25.77;58.99;99530.31;4471735;32;34157;-80
2023/08/23 05:15:34;;;;;;;4.10;2.05;;;;;;;25.93;59.19;99521.19;4461833;32;32268;-80
2023/08/23 05:18:03;;;;;;;4.30;2.20;;;;;;;26.15;58.57;99514.97;4475982;32;33532;-80
2023/08/23 05:20:34;;;;;;;4.43;2.12;;;;;;;26.23;58.49;99522.34;4471466;32;34112;-80
2023/08/23 05:23:02;;;;;;;3.90;2.20;;;;;;;26.30;58.83;99516.38;4460565;32;33668;-80
2023/08/23 05:25:31;;;;;;;3.45;1.70;;;;;;;26.87;57.39;99514.41;4463791;32;33386;-80
2023/08/23 05:28:00;;;;;;;4.62;2.22;;;;;;;27.54;55.12;99521.13;4460425;32;33798;-81
2023/08/23 05:30:32;;;;;;;4.28;1.90;;;;;;;28.20;52.86;99512.69;4469862;32;34516;-81
2023/08/23 05:33:01;;;;;;;3.87;2.30;;;;;;;28.66;51.57;99524.59;4460822;32;33478;-80
2023/08/23 05:35:30;;;;;;;4.78;2.50;;;;;;;29.17;49.74;99527.94;4460994;32;33965;-81
2023/08/23 05:37:59;;;;;;;3.90;2.30;;;;;;;29.26;49.08;99527.09;4476589;32;33835;-80
2023/08/23 05:40:28;;;;;;;3.55;1.77;;;;;;;29.50;48.23;99526.59;4467793;32;33915;-80
2023/08/23 05:42:57;;;;;;;3.37;2.00;;;;;;;29.65;48.24;99528.78;4466606;32;33379;-80
2023/08/23 05:45:26;;;;;;;5.75;2.37;;;;;;;29.59;47.78;99529.37;4459461;32;32979;-81
2023/08/23 05:47:58;;;;;;;3.43;1.90;;;;;;;29.88;46.90;99534.63;4461255;32;34426;-79
2023/08/23 05:50:27;;;;;;;3.28;1.73;;;;;;;29.71;47.52;99533.59;4459416;32;34113;-81
2023/08/23 05:52:59;;;;;;;3.53;1.80;;;;;;;29.54;47.67;99532.47;4469657;32;34261;-81
2023/08/23 05:55:27;;;;;;;4.05;2.08;;;;;;;29.56;48.26;99536.69;4472968;32;34505;-81
2023/08/23 05:57:57;;;;;;;4.12;2.53;;;;;;;29.45;48.61;99536.03;4469673;32;33725;-81
2023/08/23 06:00:26;;;;;;;3.53;2.22;;;;;;;29.27;49.43;99541.28;4461732;32;33281;-83
2023/08/23 06:02:56;;;;;;;5.18;2.53;;;;;;;28.94;49.83;99528.19;4461438;32;31936;-81
2023/08/23 06:05:25;;;;;;;3.20;1.87;;;;;;;28.84;50.35;99529.22;4472236;32;32891;-81
2023/08/23 06:07:54;;;;;;;4.28;1.75;;;;;;;28.76;51.40;99523.75;4467713;32;33404;-80
2023/08/23 06:10:23;;;;;;;2.95;1.65;;;;;;;28.76;51.71;99521.91;4468826;32;34924;-80
2023/08/23 06:12:51;;;;;;;6.18;1.90;;;;;;;28.59;52.27;99527.97;4460842;32;34133;-80
2023/08/23 06:15:20;;;;;;;3.75;2.15;;;;;;;28.67;52.65;99534.25;4467743;32;33257;-79
2023/08/23 06:17:49;;;;;;;4.25;2.35;;;;;;;28.52;53.17;99529.50;4475874;32;33726;-80
2023/08/23 06:20:20;;;;;;;3.62;2.40;;;;;;;28.62;53.06;99531.16;4460794;32;34413;-80
2023/08/23 06:22:49;;;;;;;3.62;2.00;;;;;;;28.86;52.61;99524.56;4463825;32;33700;-80
2023/08/23 06:25:18;;;;;;;3.53;2.10;;;;;;;28.89;53.18;99524.28;4465271;32;33283;-80
2023/08/23 06:27:47;;;;;;;5.40;2.40;;;;;;;28.66;53.00;99532.59;4461138;32;33944;-80
2023/08/23 06:30:16;;;;;;;4.53;2.28;;;;;;;28.99;52.19;99532.28;4460825;32;33686;-80
2023/08/23 06:32:47;;;;;;;3.37;1.90;;;;;;;29.13;52.05;99537.22;4465613;32;34009;-79
2023/08/23 06:35:16;;;;;;;;;;;;;;;28.94;51.46;99533.53;4463295;32;33766;-80
2023/08/23 06:37:46;;;;;;;5.22;2.10;;;;;;;28.90;50.83;99532.16;4473290;32;33807;-80
2023/08/23 06:40:16;;;;;;;4.20;2.15;;;;;;;28.97;51.02;99537.78;4470994;32;33257;-81
2023/08/23 06:42:45;;;;;;;3.37;2.00;;;;;;;29.07;50.52;99537.81;4462207;32;32883;-80
2023/08/23 06:45:14;;;;;;;5.28;2.47;;;;;;;28.87;51.52;99535.09;4462898;32;33085;-80
2023/08/23 06:47:43;;;;;;;4.15;2.17;;;;;;;28.93;51.99;99539.03;4463953;32;31996;-80
2023/08/23 06:50:12;;;;;;;7.40;2.50;;;;;;;29.15;51.28;99535.25;4463147;32;34432;-80
2023/08/23 06:52:45;;;;;;;4.93;2.10;;;;;;;29.16;50.62;99541.44;4462930;32;34071;-81
2023/08/23 06:55:14;;;;;;;;;;;;;;;28.90;50.26;99545.53;4458902;32;33218;-80
2023/08/23 06:57:43;;;;;;;4.75;2.33;;;;;;;28.80;50.45;99550.03;4460319;32;33988;-81
2023/08/23 07:00:13;;;;;;;4.43;2.12;;;;;;;28.82;50.90;99548.03;4475708;32;34589;-81
2023/08/23 07:02:42;;;;;;;5.07;2.47;;;;;;;29.01;50.09;99547.19;4465280;32;33944;-80
2023/08/23 07:05:11;;;;;;;5.00;2.85;;;;;;;28.84;51.56;99555.91;4462610;32;33283;-80
2023/08/23 07:07:39;;;;;;;5.93;2.50;;;;;;;28.93;51.56;99547.91;4459783;32;33507;-80
2023/08/23 07:10:10;;;;;;;3.53;2.00;;;;;;;29.09;50.83;99546.50;4459550;32;33524;-82
2023/08/23 07:12:45;;;;;;;4.70;2.72;;;;;;;28.93;50.74;99547.91;4467381;32;35141;-82
2023/08/23 07:15:14;;;;;;;5.32;2.72;;;;;;;29.02;51.61;99553.34;4471689;32;33081;-82
2023/08/23 07:17:43;;;;;;;4.75;2.00;;;;;;;28.91;51.68;99549.03;4472707;32;34047;-80
2023/08/23 07:20:14;;;;;;;4.72;2.20;;;;;;;29.13;51.27;99553.25;4468040;32;34963;-79
2023/08/23 07:22:43;;;;;;;3.62;2.03;;;;;;;29.29;51.33;99556.19;4477081;32;33089;-80
2023/08/23 07:25:17;;;;;;;4.35;2.50;;;;;;;29.18;51.13;99551.00;4469332;32;33920;-80
2023/08/23 07:27:46;;;;;;;6.07;3.20;;;;;;;28.94;51.49;99560.25;4473147;32;33507;-80
2023/08/23 07:30:15;;;;;;;5.43;2.67;;;;;;;29.23;51.69;99559.41;4472248;32;34684;-80
2023/08/23 07:32:45;;;;;;;4.40;2.60;;;;;;;29.43;50.75;99567.37;4479524;32;33657;-80
2023/08/23 07:35:14;;;;;;;4.05;2.10;;;;;;;29.30;51.37;99565.87;4468818;32;32985;-80
2023/08/23 07:37:43;;;;;;;4.55;2.67;;;;;;;29.48;50.99;99576.69;4468022;32;34406;-80
2023/08/23 07:40:12;;;;;;;4.45;2.45;;;;;;;29.63;50.65;99569.03;4465830;32;34567;-80
2023/08/23 07:42:42;;;;;;;5.00;2.75;;;;;;;29.40;51.26;99578.38;4462687;32;33426;-80
2023/08/23 07:45:11;;;;;;;5.03;2.55;;;;;;;29.57;50.87;99572.28;4467998;32;33306;-80
2023/08/23 07:47:40;;;;;;;4.62;2.42;;;;;;;29.40;51.90;99581.87;4457538;32;34290;-80
2023/08/23 07:50:10;;;;;;;5.60;2.70;;;;;;;29.43;51.80;99578.09;4459381;32;33754;-80
2023/08/23 07:52:39;;;;;;;5.20;3.50;;;;;;;29.50;52.51;99579.19;4463748;32;33644;-80
2023/08/23 07:55:09;;;;;;;5.15;2.35;;;;;;;29.64;51.95;99583.25;4478539;32;33401;-80
2023/08/23 07:57:37;;;;;;;5.15;2.87;;;;;;;29.90;51.58;99588.81;4475002;32;34135;-80
2023/08/23 08:00:09;;;;;;;5.53;2.92;;;;;;;29.96;51.88;99590.88;4465280;32;33543;-80
2023/08/23 08:02:38;;;;;;;6.28;3.15;;;;;;;29.86;51.53;99582.91;4470651;32;33325;-80
2023/08/23 08:05:08;;;;;;;5.07;3.33;;;;;;;30.16;51.34;99583.63;4472529;32;33963;-81
2023/08/23 08:07:37;;;;;;;5.65;3.35;;;;;;;30.45;50.74;99582.66;4478973;32;35575;-80
2023/08/23 08:10:26;;;;;;;5.03;2.53;;;;;;;30.48;50.34;99585.88;4468707;32;34732;-80
2023/08/23 08:12:55;;;;;;;5.20;3.00;;;;;;;30.48;50.57;99580.50;4474546;32;33670;-79
2023/08/23 08:15:25;;;;;;;5.47;2.90;;;;;;;30.50;50.25;99589.25;4474434;32;34116;-80
2023/08/23 08:17:57;;;;;;;4.78;2.45;;;;;;;30.45;50.59;99583.50;4475739;32;33422;-80
2023/08/23 08:20:25;;;;;;;4.60;2.33;;;;;;;30.23;50.45;99589.22;4480542;32;33497;-80
2023/08/23 08:22:54;;;;;;;4.47;2.50;;;;;;;30.58;50.41;99580.44;4473652;32;31976;-80
2023/08/23 08:25:23;;;;;;;4.90;2.25;;;;;;;30.66;50.46;99588.56;4475174;32;33159;-81
2023/08/23 08:27:52;;;;;;;4.28;2.22;;;;;;;30.90;50.37;99579.94;4475509;32;33367;-80
2023/08/23 08:30:21;;;;;;;4.53;2.55;;;;;;;31.06;48.62;99579.25;4480342;32;34474;-80
2023/08/23 08:32:51;;;;;;;6.10;3.00;;;;;;;31.29;48.31;99576.94;4475313;32;34222;-79
2023/08/23 08:35:20;;;;;;;4.10;2.00;;;;;;;31.23;48.71;99577.53;4474783;32;33007;-80
2023/08/23 08:37:49;;;;;;;4.87;2.78;;;;;;;31.33;48.47;99575.59;4474912;32;34368;-80
2023/08/23 08:40:21;;;;;;;4.30;2.37;;;;;;;31.18;48.00;99569.97;4480077;32;34638;-80
2023/08/23 08:42:51;;;;;;;6.65;2.70;;;;;;;31.08;49.39;99579.13;4477333;32;33701;-80
2023/08/23 08:45:20;;;;;;;4.22;2.12;;;;;;;31.32;48.36;99578.47;4473660;32;32860;-80
2023/08/23 08:47:51;;;;;;;5.43;3.00;;;;;;;31.41;47.89;99575.72;4477594;31;34631;-80
2023/08/23 08:50:21;;;;;;;4.65;2.25;;;;;;;31.36;48.12;99579.81;4472828;32;33802;-80
2023/08/23 08:52:52;;;;;;;6.53;2.80;;;;;;;31.50;48.05;99591.84;4480594;32;33781;-81
2023/08/23 08:55:22;;;;;;;4.10;2.33;;;;;;;31.57;48.34;99591.06;4474689;32;33694;-80
2023/08/23 08:57:53;;;;;;;4.95;2.85;;;;;;;31.29;48.82;99584.97;4473799;32;33997;-79
2023/08/23 09:00:25;;;;;;;5.37;2.75;;;;;;;31.64;47.55;99589.41;4470997;32;34715;-79
2023/08/23 09:03:00;;;;;;;8.93;3.50;;;;;;;31.55;48.35;99584.16;4466897;32;34275;-80
2023/08/23 09:05:29;;;;;;;4.68;2.78;;;;;;;31.72;47.87;99585.09;4474116;32;33284;-80
2023/08/23 09:08:01;;;;;;;2.90;2.00;;;;;;;31.80;48.11;99585.12;4465723;32;33931;-80
2023/08/23 09:10:30;;;;;;;8.57;2.37;;;;;;;31.87;47.41;99583.50;4472281;32;33581;-80
2023/08/23 09:12:58;;;;;;;3.37;2.00;;;;;;;32.00;47.17;99585.78;4472227;32;34489;-80
2023/08/23 09:15:27;;;;;;;5.95;1.67;;;;;;;32.04;46.63;99577.25;4474260;32;33086;-80
2023/08/23 09:17:56;;;;;;;4.45;2.40;;;;;;;32.01;47.83;99579.41;4469626;32;33421;-80
2023/08/23 09:20:27;;;;;;;5.03;2.58;;;;;;;32.18;47.91;99589.19;4470614;32;34174;-80
2023/08/23 09:22:56;;;;;;;;;;;;;;;32.29;47.09;99588.09;4471360;32;33774;-80
2023/08/23 09:25:25;;;;;;;5.20;2.72;;;;;;;32.49;46.90;99591.31;4475143;32;34022;-80
2023/08/23 09:27:54;;;;;;;4.87;2.37;;;;;;;32.62;45.96;99599.78;4475546;31;34662;-80
2023/08/23 09:30:24;;;;;;;5.70;2.85;;;;;;;32.39;46.29;99586.09;4470803;32;34530;-80
2023/08/23 09:32:53;;;;;;;5.22;2.53;;;;;;;32.77;45.81;99581.19;4472159;32;33404;-80
2023/08/23 09:35:22;;;;;;;3.72;2.33;;;;;;;32.37;46.31;99585.41;4469908;32;33236;-80
2023/08/23 09:37:52;;;;;;;4.70;2.55;;;;;;;32.90;45.19;99572.63;4467429;32;33446;-80
2023/08/23 09:40:22;;;;;;;4.35;2.00;;;;;;;32.92;45.59;99573.28;4466312;32;33053;-80
2023/08/23 09:42:52;;;;;;;4.53;2.33;;;;;;;32.84;45.37;99576.00;4465995;32;33985;-80
2023/08/23 09:45:26;;;;;;;3.62;1.77;;;;;;;33.10;44.15;99570.47;4471007;32;33550;-80
2023/08/23 09:47:56;;;;;;;6.03;2.87;;;;;;;33.04;44.95;99577.34;4474444;32;33587;-80
2023/08/23 09:50:25;;;;;;;4.55;2.22;;;;;;;33.02;43.90;99579.34;4474240;32;33207;-80
2023/08/23 09:53:01;;;;;;;4.55;2.28;;;;;;;33.09;43.95;99569.63;4469657;32;35566;-80
2023/08/23 09:55:31;;;;;;;5.10;2.42;;;;;;;33.13;43.75;99576.34;4465731;32;33271;-80
2023/08/23 09:58:01;;;;;;;4.57;2.30;;;;;;;33.14;43.48;99579.88;4469841;32;32909;-80
2023/08/23 10:00:30;;;;;;;4.10;2.20;;;;;;;32.99;44.87;99574.31;4473753;32;34405;-80
2023/08/23 10:02:59;;;;;;;5.07;2.58;;;;;;;32.94;44.75;99572.13;4472083;32;34328;-80
2023/08/23 10:05:28;;;;;;;5.32;2.65;;;;;;;33.28;44.07;99571.12;4468550;32;33056;-80
2023/08/23 10:07:58;;;;;;;4.28;2.05;;;;;;;33.13;43.65;99570.16;4471748;31;33696;-80
2023/08/23 10:10:28;;;;;;;5.57;2.30;;;;;;;33.11;43.73;99569.47;4475556;32;33230;-80
2023/08/23 10:13:00;;;;;;;4.80;2.72;;;;;;;33.20;43.82;99570.28;4469770;32;32825;-80
2023/08/23 10:15:32;;;;;;;3.80;2.00;;;;;;;33.41;42.14;99570.59;4472386;31;33489;-80
2023/08/23 10:18:04;;;;;;;3.62;1.90;;;;;;;33.40;42.87;99560.88;4472166;32;33532;-80
2023/08/23 10:20:34;;;;;;;4.00;1.90;;;;;;;33.47;43.18;99569.94;4473855;32;34070;-80
2023/08/23 10:23:05;;;;;;;;;;;;;;;33.40;43.52;99554.66;4476064;32;33738;-80
2023/08/23 10:25:34;;;;;;;5.12;2.80;;;;;;;33.65;43.12;99558.97;4471448;32;33129;-82
2023/08/23 10:28:05;;;;;;;4.70;2.10;;;;;;;33.50;43.01;99563.38;4474135;32;33639;-80
2023/08/23 10:30:34;;;;;;;2.97;1.92;;;;;;;33.12;43.03;99563.91;4472157;32;33649;-80
2023/08/23 10:33:10;;;;;;;2.50;1.50;;;;;;;33.25;42.79;99565.22;4473898;32;34101;-80
2023/08/23 10:35:40;;;;;;;4.95;2.42;;;;;;;33.12;43.88;99561.22;4478322;32;33091;-80
2023/08/23 10:38:11;;;;;;;4.17;2.37;;;;;;;33.62;42.98;99567.41;4471341;32;33346;-80
2023/08/23 10:40:41;;;;;;;3.92;2.12;;;;;;;33.43;42.06;99560.50;4473687;32;34586;-81
2023/08/23 10:43:11;;;;;;;;;;;;;;;33.64;42.20;99554.62;4474766;32;33726;-79
2023/08/23 10:45:50;;;;;;;5.60;2.40;;;;;;;33.64;42.20;99559.16;4479921;32;33354;-80
2023/08/23 10:48:23;;;;;;;5.75;3.05;;;;;;;33.49;42.46;99553.59;4479145;32;33744;-80
2023/08/23 10:50:54;;;;;;;4.30;1.87;;;;;;;33.66;42.95;99557.13;4473867;32;34973;-80
2023/08/23 10:53:24;;;;;;;4.75;2.47;;;;;;;33.90;41.40;99557.06;4474137;32;35198;-79
2023/08/23 10:55:57;;;;;;;5.47;2.95;;;;;;;34.19;40.60;99552.91;4474464;32;32935;-79
2023/08/23 10:58:25;;;;;;;4.57;2.40;;;;;;;34.47;40.33;99549.72;4478312;32;32818;-79
2023/08/23 11:00:55;;;;;;;3.85;1.92;;;;;;;33.77;41.31;99544.13;4469281;32;33041;-80
2023/08/23 11:03:25;;;;;;;4.55;2.28;;;;;;;33.95;40.73;99543.91;4466970;32;33955;-80
2023/08/23 11:05:53;;;;;;;4.97;2.33;;;;;;;33.62;41.39;99543.19;4466207;32;33669;-80
2023/08/23 11:08:23;;;;;;;4.07;2.25;;;;;;;33.99;41.81;99539.84;4471728;32;34770;-80
2023/08/23 11:10:52;;;;;;;;;;;;;;;33.84;40.75;99541.59;4473615;32;34240;-80
2023/08/23 11:13:21;;;;;;;5.10;2.22;;;;;;;34.30;38.65;99535.53;4471071;32;34356;-79
2023/08/23 11:15:50;;;;;;;4.35;2.15;;;;;;;33.92;40.20;99543.41;4473532;32;33017;-80
2023/08/23 11:18:19;;;;;;;3.65;2.08;;;;;;;33.78;39.98;99544.97;4471028;32;33803;-80
2023/08/23 11:20:48;;;;;;;2.78;1.80;;;;;;;33.45;39.76;99541.53;4473493;32;34087;-80
2023/08/23 11:23:16;;;;;;;6.07;2.28;;;;;;;33.62;40.91;99551.25;4468151;32;33353;-79
2023/08/23 11:25:47;;;;;;;4.12;2.10;;;;;;;33.89;39.65;99547.28;4470995;32;33057;-80
2023/08/23 11:28:17;;;;;;;3.17;2.00;;;;;;;33.87;40.19;99537.72;4470956;32;33792;-80
2023/08/23 11:30:50;;;;;;;3.60;2.08;;;;;;;33.70;40.92;99545.00;4475139;31;33509;-80
2023/08/23 11:33:19;;;;;;;3.83;1.62;;;;;;;33.90;40.88;99540.91;4478568;32;34652;-80
2023/08/23 11:35:47;;;;;;;3.33;2.05;;;;;;;33.85;41.11;99543.25;4469510;32;32927;-79
2023/08/23 11:38:16;;;;;;;3.47;1.65;;;;;;;33.87;40.21;99543.94;4473123;32;33411;-79
2023/08/23 11:40:47;;;;;;;4.20;1.92;;;;;;;33.73;39.98;99539.28;4473037;32;33508;-80
2023/08/23 11:43:18;;;;;;;4.15;2.20;;;;;;;33.58;40.51;99533.78;4478585;32;34017;-80
2023/08/23 11:45:52;;;;;;;4.43;1.60;;;;;;;33.64;41.10;99530.41;4476301;32;33930;-79